createdAt,value
2023-06-11T04:31:36.780Z,9.02
2023-06-11T04:34:07.866Z,9.55
2023-06-11T04:36:34.627Z,9.98
2023-06-11T04:39:02.969Z,8.45
2023-06-11T04:41:30.609Z,8.25
2023-06-11T04:43:57.323Z,9.77
2023-06-11T04:46:24.212Z,8.65
2023-06-11T04:48:51.488Z,10.38
2023-06-11T04:51:18.909Z,10.15
2023-06-11T04:53:46.605Z,9.63
2023-06-11T04:56:13.498Z,9.30
2023-06-11T04:58:40.461Z,8.88
2023-06-11T05:01:08.188Z,9.38
2023-06-11T05:03:38.207Z,8.88
2023-06-11T05:06:05.766Z,9.75
2023-06-11T05:08:33.643Z,8.70
2023-06-11T05:11:00.559Z,9.23
2023-06-11T05:13:27.777Z,9.50
2023-06-11T05:15:59.036Z,8.60
2023-06-11T05:18:26.804Z,8.30
2023-06-11T05:20:54.410Z,9.07
2023-06-11T05:23:29.718Z,8.50
2023-06-11T05:26:02.869Z,8.60
2023-06-11T05:28:29.776Z,8.95
2023-06-11T05:30:56.527Z,8.80
2023-06-11T05:33:23.939Z,9.02
2023-06-11T05:35:52.621Z,8.95
2023-06-11T05:38:20.303Z,8.63
2023-06-11T05:40:47.093Z,7.72
2023-06-11T05:43:13.849Z,8.63
2023-06-11T05:45:49.107Z,8.85
2023-06-11T05:48:16.919Z,8.23
2023-06-11T05:50:43.891Z,8.25
2023-06-11T05:53:10.821Z,8.40
2023-06-11T05:55:39.160Z,7.40
2023-06-11T05:58:06.763Z,7.97
2023-06-11T06:00:33.655Z,9.48
2023-06-11T06:03:02.649Z,7.35
2023-06-11T06:05:29.912Z,7.85
2023-06-11T06:07:57.190Z,7.70
2023-06-11T06:10:23.952Z,8.63
2023-06-11T06:12:50.764Z,6.90
2023-06-11T06:15:17.775Z,9.73
2023-06-11T06:17:44.827Z,7.07
2023-06-11T06:20:12.320Z,6.80
2023-06-11T06:22:40.101Z,8.38
2023-06-11T06:25:07.361Z,8.05
2023-06-11T06:27:34.147Z,8.07
2023-06-11T06:30:00.834Z,9.07
2023-06-11T06:32:29.271Z,7.10
2023-06-11T06:34:56.019Z,8.07
2023-06-11T06:37:23.659Z,6.78
2023-06-11T06:39:50.329Z,8.35
2023-06-11T06:42:17.089Z,7.93
2023-06-11T06:44:43.842Z,8.38
2023-06-11T06:47:10.930Z,7.68
2023-06-11T06:49:39.841Z,8.85
2023-06-11T06:52:07.903Z,8.23
2023-06-11T06:54:34.734Z,8.27
2023-06-11T06:57:01.528Z,7.85
2023-06-11T06:59:28.367Z,7.05
2023-06-11T07:01:55.225Z,7.03
2023-06-11T07:04:22.313Z,7.68
2023-06-11T07:06:49.044Z,8.18
2023-06-11T07:09:16.016Z,8.50
2023-06-11T07:11:42.701Z,7.30
2023-06-11T07:14:09.554Z,8.20
2023-06-11T07:16:36.755Z,7.35
2023-06-11T07:19:03.698Z,7.55
2023-06-11T07:21:30.485Z,7.55
2023-06-11T07:23:58.837Z,7.32
2023-06-11T07:26:26.578Z,7.10
2023-06-11T07:28:53.622Z,7.07
2023-06-11T07:31:20.311Z,7.35
2023-06-11T07:33:47.665Z,7.07
2023-06-11T07:36:14.430Z,6.38
2023-06-11T07:38:41.585Z,7.25
2023-06-11T07:41:08.377Z,6.35
2023-06-11T07:43:35.094Z,6.70
2023-06-11T07:46:02.801Z,8.82
2023-06-11T07:48:29.501Z,6.93
2023-06-11T07:50:56.323Z,6.95
2023-06-11T07:53:23.133Z,6.30
2023-06-11T07:55:55.367Z,6.57
2023-06-11T07:58:22.198Z,6.70
2023-06-11T08:00:48.881Z,6.35
2023-06-11T08:03:15.969Z,5.72
2023-06-11T08:05:42.717Z,6.22
2023-06-11T08:08:09.818Z,6.15
2023-06-11T08:10:36.786Z,6.28
2023-06-11T08:13:03.598Z,6.93
2023-06-11T08:15:30.848Z,6.90
2023-06-11T08:17:58.030Z,5.95
2023-06-11T08:20:25.787Z,6.97
2023-06-11T08:22:52.601Z,7.07
2023-06-11T08:25:19.348Z,6.15
2023-06-11T08:27:46.187Z,5.50
2023-06-11T08:30:13.515Z,6.22
2023-06-11T08:32:40.680Z,5.13
2023-06-11T08:35:09.018Z,5.70
2023-06-11T08:37:36.479Z,5.88
2023-06-11T08:40:03.329Z,5.82
2023-06-11T08:42:30.418Z,5.55
2023-06-11T08:44:57.299Z,5.78
2023-06-11T08:47:24.276Z,5.57
2023-06-11T08:49:54.087Z,5.47
2023-06-11T08:52:23.449Z,5.50
2023-06-11T08:54:50.212Z,5.55
2023-06-11T08:57:17.193Z,5.53
2023-06-11T08:59:43.895Z,4.97
2023-06-11T09:02:10.774Z,5.93
2023-06-11T09:04:38.938Z,4.57
2023-06-11T09:07:06.748Z,4.97
2023-06-11T09:09:33.538Z,5.80
2023-06-11T09:12:06.898Z,5.65
2023-06-11T09:14:33.572Z,4.57
2023-06-11T09:17:00.337Z,4.95
2023-06-11T09:19:26.992Z,5.55
2023-06-11T09:21:58.588Z,5.50
2023-06-11T09:24:26.278Z,7.57
2023-06-11T09:26:58.357Z,4.40
2023-06-11T09:29:27.547Z,4.93
2023-06-11T09:32:23.797Z,5.20
2023-06-11T09:34:58.735Z,5.20
2023-06-11T09:37:25.583Z,5.18
2023-06-11T09:39:52.488Z,6.00
2023-06-11T09:42:28.859Z,5.53
2023-06-11T09:45:02.577Z,4.63
2023-06-11T09:47:32.232Z,5.07
2023-06-11T09:50:03.404Z,5.38
2023-06-11T09:52:30.788Z,4.90
2023-06-11T09:54:58.802Z,5.90
2023-06-11T09:57:28.481Z,8.52
2023-06-11T09:59:55.643Z,5.32
2023-06-11T10:02:23.854Z,4.30
2023-06-11T10:04:50.949Z,5.53
2023-06-11T10:07:19.027Z,4.97
2023-06-11T10:09:49.695Z,4.82
2023-06-11T10:12:17.431Z,5.00
2023-06-11T10:14:52.398Z,5.18
2023-06-11T10:17:19.398Z,4.60
2023-06-11T10:19:50.305Z,4.70
2023-06-11T10:22:34.178Z,4.95
2023-06-11T10:25:04.674Z,4.53
2023-06-11T10:27:39.623Z,5.20
2023-06-11T10:30:10.447Z,6.05
2023-06-11T10:32:49.804Z,4.80
2023-06-11T10:35:25.070Z,4.28
2023-06-11T10:38:02.084Z,5.05
2023-06-11T10:40:36.547Z,5.47
2023-06-11T10:43:12.676Z,5.03
2023-06-11T10:45:42.302Z,4.13
2023-06-11T10:48:09.319Z,5.53
2023-06-11T10:50:37.018Z,5.10
2023-06-11T10:53:10.289Z,4.80
2023-06-11T10:55:43.374Z,4.15
2023-06-11T10:58:19.569Z,4.18
2023-06-11T11:00:46.766Z,4.00
2023-06-11T11:03:13.913Z,3.92
2023-06-11T11:05:43.960Z,4.25
2023-06-11T11:08:10.995Z,4.40
2023-06-11T11:10:37.665Z,3.88
2023-06-11T11:13:04.993Z,5.18
2023-06-11T11:15:31.843Z,5.05
2023-06-11T11:17:58.691Z,3.97
2023-06-11T11:20:25.887Z,4.00
2023-06-11T11:22:57.660Z,4.88
2023-06-11T11:25:32.972Z,4.40
2023-06-11T11:27:59.979Z,4.20
2023-06-11T11:30:29.387Z,4.93
2023-06-11T11:32:57.593Z,4.85
2023-06-11T11:35:26.407Z,5.50
2023-06-11T11:37:55.624Z,4.82
2023-06-11T11:40:23.439Z,3.72
2023-06-11T11:42:50.593Z,3.95
2023-06-11T11:45:18.687Z,5.18
2023-06-11T11:47:51.707Z,5.05
2023-06-11T11:50:26.860Z,4.95
2023-06-11T11:53:05.119Z,4.15
2023-06-11T11:55:34.683Z,4.28
2023-06-11T11:58:06.207Z,4.85
2023-06-11T12:00:33.608Z,4.00
2023-06-11T12:03:11.102Z,4.97
2023-06-11T12:05:38.936Z,3.78
2023-06-11T12:08:09.233Z,4.78
2023-06-11T12:10:36.093Z,4.28
2023-06-11T12:13:03.336Z,4.22
2023-06-11T12:15:30.167Z,4.65
2023-06-11T12:17:56.944Z,4.15
2023-06-11T12:20:23.796Z,3.80
2023-06-11T12:22:51.512Z,4.20
2023-06-11T12:25:18.726Z,4.00
2023-06-11T12:27:45.756Z,3.80
2023-06-11T12:30:13.727Z,4.45
2023-06-11T12:32:41.960Z,3.70
2023-06-11T12:35:09.440Z,4.00
2023-06-11T12:37:37.504Z,4.00
2023-06-11T12:40:08.878Z,3.67
2023-06-11T12:42:36.214Z,4.35
2023-06-11T12:45:04.667Z,4.82
2023-06-11T12:47:31.925Z,4.30
2023-06-11T12:49:58.686Z,4.72
2023-06-11T12:52:25.488Z,3.88
2023-06-11T12:54:52.176Z,3.80
2023-06-11T12:57:18.912Z,3.65
2023-06-11T12:59:45.688Z,3.97
2023-06-11T13:02:16.180Z,5.03
2023-06-11T13:07:11.872Z,5.07
2023-06-11T13:09:38.593Z,3.47
2023-06-11T13:12:07.148Z,5.13
2023-06-11T13:14:33.881Z,3.50
2023-06-11T13:17:00.565Z,4.32
2023-06-11T13:19:27.320Z,3.55
2023-06-11T13:21:54.490Z,4.63
2023-06-11T13:24:22.229Z,3.65
2023-06-11T13:26:49.042Z,5.05
2023-06-11T13:29:15.804Z,5.35
2023-06-11T13:31:42.574Z,4.18
2023-06-11T13:34:09.290Z,4.28
2023-06-11T13:36:37.020Z,4.18
2023-06-11T13:39:08.025Z,3.17
2023-06-11T13:41:34.952Z,4.00
2023-06-11T13:44:01.670Z,4.70
2023-06-11T13:46:28.492Z,4.28
2023-06-11T13:48:56.234Z,4.78
2023-06-11T13:51:27.302Z,3.75
2023-06-11T13:53:54.091Z,4.00
2023-06-11T13:56:20.860Z,4.05
2023-06-11T13:58:47.653Z,3.53
2023-06-11T14:01:14.413Z,4.72
2023-06-11T14:03:41.182Z,4.95
2023-06-11T14:06:08.935Z,3.78
2023-06-11T14:08:35.793Z,3.20
2023-06-11T14:11:02.524Z,4.32
2023-06-11T14:13:29.366Z,3.83
2023-06-11T14:15:56.931Z,3.80
2023-06-11T14:18:23.703Z,3.88
2023-06-11T14:20:50.430Z,4.30
2023-06-11T14:23:17.183Z,4.50
2023-06-11T14:25:43.856Z,3.55
2023-06-11T14:28:11.161Z,3.10
2023-06-11T14:30:37.942Z,3.28
2023-06-11T14:33:04.675Z,4.15
2023-06-11T14:35:31.600Z,3.25
2023-06-11T14:37:59.459Z,3.88
2023-06-11T14:40:28.140Z,4.63
2023-06-11T14:42:54.850Z,4.82
2023-06-11T14:45:21.585Z,3.92
2023-06-11T14:47:50.516Z,4.15
2023-06-11T14:50:17.505Z,4.03
2023-06-11T14:52:44.204Z,4.53
2023-06-11T14:55:10.960Z,3.75
2023-06-11T14:57:37.779Z,3.15
2023-06-11T15:00:05.436Z,3.53
2023-06-11T15:02:36.348Z,3.67
2023-06-11T15:05:04.276Z,3.47
2023-06-11T15:07:35.415Z,4.45
2023-06-11T15:10:04.305Z,3.22
2023-06-11T15:12:31.286Z,4.28
2023-06-11T15:15:01.257Z,4.25
2023-06-11T15:17:30.844Z,4.20
2023-06-11T15:19:59.474Z,5.13
2023-06-11T15:22:26.410Z,2.90
2023-06-11T15:24:53.255Z,4.60
2023-06-11T15:27:19.938Z,4.30
2023-06-11T15:29:46.780Z,4.75
2023-06-11T15:32:15.452Z,4.03
2023-06-11T15:34:43.065Z,3.88
2023-06-11T15:37:09.816Z,4.18
2023-06-11T15:39:36.667Z,4.53
2023-06-11T15:42:03.861Z,3.88
2023-06-11T15:44:30.660Z,3.53
2023-06-11T15:46:57.518Z,3.83
2023-06-11T15:49:24.266Z,5.30
2023-06-11T15:51:51.097Z,3.53
2023-06-11T15:54:17.826Z,3.17
2023-06-11T15:56:47.541Z,4.20
2023-06-11T15:59:15.234Z,4.22
2023-06-11T16:01:43.509Z,4.25
2023-06-11T16:04:10.870Z,3.72
2023-06-11T16:06:37.821Z,3.97
2023-06-11T16:09:04.638Z,5.07
2023-06-11T16:11:31.551Z,4.85
2023-06-11T16:13:58.354Z,5.65
2023-06-11T16:16:25.272Z,5.38
2023-06-11T16:18:52.085Z,5.38
2023-06-11T16:21:18.799Z,3.70
2023-06-11T16:23:45.594Z,3.78
2023-06-11T16:26:12.399Z,4.55
2023-06-11T16:28:39.121Z,4.38
2023-06-11T16:31:05.911Z,4.13
2023-06-11T16:33:40.757Z,4.88
2023-06-11T16:36:18.592Z,4.40
2023-06-11T16:38:45.675Z,4.13
2023-06-11T16:41:12.666Z,3.35
2023-06-11T16:43:42.083Z,3.75
2023-06-11T16:46:09.953Z,3.00
2023-06-11T16:48:36.811Z,3.75
2023-06-11T16:51:03.605Z,4.20
2023-06-11T16:53:30.298Z,4.03
2023-06-11T16:55:57.099Z,3.28
2023-06-11T16:58:23.812Z,3.17
2023-06-11T17:00:51.257Z,3.58
2023-06-11T17:03:18.245Z,3.42
2023-06-11T17:05:45.288Z,3.80
2023-06-11T17:08:13.964Z,3.53
2023-06-11T17:10:41.209Z,4.07
2023-06-11T17:13:08.026Z,3.72
2023-06-11T17:15:34.768Z,3.47
2023-06-11T17:18:01.818Z,3.53
2023-06-11T17:20:28.668Z,3.20
2023-06-11T17:22:55.624Z,3.78
2023-06-11T17:25:24.867Z,6.10
2023-06-11T17:27:51.811Z,4.38
2023-06-11T17:30:18.901Z,3.60
2023-06-11T17:32:46.078Z,5.82
2023-06-11T17:35:13.444Z,3.80
2023-06-11T17:37:40.389Z,3.97
2023-06-11T17:40:07.894Z,4.53
2023-06-11T17:42:34.805Z,3.70
2023-06-11T17:45:01.563Z,4.20
2023-06-11T17:47:28.455Z,3.63
2023-06-11T17:49:55.333Z,3.70
2023-06-11T17:52:22.077Z,4.13
2023-06-11T17:54:48.863Z,6.90
2023-06-11T17:57:15.511Z,3.63
2023-06-11T17:59:42.206Z,3.15
2023-06-11T18:02:09.046Z,4.25
2023-06-11T18:04:35.878Z,4.47
2023-06-11T18:07:02.813Z,5.43
2023-06-11T18:09:29.500Z,3.42
2023-06-11T18:11:56.478Z,3.55
2023-06-11T18:14:23.248Z,4.43
2023-06-11T18:16:50.201Z,4.65
2023-06-11T18:19:17.067Z,3.55
2023-06-11T18:21:43.948Z,4.68
2023-06-11T18:24:11.041Z,3.40
2023-06-11T18:26:39.321Z,5.93
2023-06-11T18:29:06.059Z,3.03
2023-06-11T18:31:32.834Z,4.43
2023-06-11T18:33:59.577Z,7.35
2023-06-11T18:36:27.313Z,4.28
2023-06-11T18:38:54.013Z,3.47
2023-06-11T18:41:21.592Z,4.07
2023-06-11T18:43:48.868Z,4.07
2023-06-11T18:46:15.746Z,3.83
2023-06-11T18:48:42.469Z,3.78
2023-06-11T18:51:09.156Z,4.00
2023-06-11T18:53:35.849Z,4.07
2023-06-11T18:56:02.533Z,4.60
2023-06-11T18:58:29.320Z,5.15
2023-06-11T19:00:56.115Z,4.50
2023-06-11T19:03:22.989Z,3.70
2023-06-11T19:05:50.843Z,4.07
2023-06-11T19:08:21.158Z,3.80
2023-06-11T19:10:48.502Z,4.68
2023-06-11T19:13:16.232Z,4.45
2023-06-11T19:15:43.230Z,3.90
2023-06-11T19:18:11.824Z,3.55
2023-06-11T19:20:41.317Z,4.25
2023-06-11T19:23:08.659Z,4.43
2023-06-11T19:25:35.673Z,5.00
2023-06-11T19:28:02.888Z,5.18
2023-06-11T19:30:29.611Z,3.88
2023-06-11T19:32:56.455Z,5.43
2023-06-11T19:35:23.375Z,3.83
2023-06-11T19:37:51.612Z,4.78
2023-06-11T19:40:18.437Z,3.60
2023-06-11T19:42:45.154Z,3.83
2023-06-11T19:45:12.036Z,4.38
2023-06-11T19:47:38.841Z,4.70
2023-06-11T19:50:06.423Z,3.65
2023-06-11T19:52:33.224Z,4.70
2023-06-11T19:55:00.063Z,4.03
2023-06-11T19:57:26.803Z,4.72
2023-06-11T19:59:53.586Z,5.57
2023-06-11T20:02:20.612Z,4.80
2023-06-11T20:04:47.447Z,4.88
2023-06-11T20:07:17.081Z,5.35
2023-06-11T20:09:46.020Z,4.47
2023-06-11T20:12:12.750Z,4.63
2023-06-11T20:14:39.462Z,5.18
2023-06-11T20:17:06.192Z,4.75
2023-06-11T20:19:36.999Z,4.03
2023-06-11T20:22:05.253Z,5.00
2023-06-11T20:24:32.701Z,4.07
2023-06-11T20:26:59.449Z,5.50
2023-06-11T20:29:26.477Z,4.70
2023-06-11T20:31:53.267Z,4.07
2023-06-11T20:34:20.047Z,4.50
2023-06-11T20:36:47.005Z,5.13
2023-06-11T20:39:13.782Z,5.22
2023-06-11T20:41:40.556Z,5.45
2023-06-11T20:44:07.232Z,4.25
2023-06-11T20:46:34.124Z,4.00
2023-06-11T20:49:01.022Z,4.25
2023-06-11T20:51:27.802Z,3.80
2023-06-11T20:53:54.669Z,4.63
2023-06-11T20:56:22.735Z,4.65
2023-06-11T20:58:49.505Z,5.47
2023-06-11T21:01:16.354Z,4.15
2023-06-11T21:03:43.338Z,4.88
2023-06-11T21:06:10.223Z,5.30
2023-06-11T21:08:36.894Z,4.05
2023-06-11T21:11:03.680Z,4.07
2023-06-11T21:13:30.541Z,3.60
2023-06-11T21:15:57.260Z,4.60
2023-06-11T21:18:23.999Z,3.92
2023-06-11T21:20:50.790Z,4.18
2023-06-11T21:23:17.594Z,3.88
2023-06-11T21:25:44.283Z,3.47
2023-06-11T21:28:11.447Z,4.50
2023-06-11T21:30:38.302Z,4.00
2023-06-11T21:33:05.228Z,3.78
2023-06-11T21:35:32.173Z,5.25
2023-06-11T21:37:58.838Z,4.38
2023-06-11T21:40:25.572Z,3.75
2023-06-11T21:42:52.319Z,4.53
2023-06-11T21:45:19.037Z,3.45
2023-06-11T21:47:46.157Z,4.00
2023-06-11T21:50:14.179Z,4.65
2023-06-11T21:52:42.229Z,4.13
2023-06-11T21:55:09.344Z,4.43
2023-06-11T21:57:36.297Z,3.85
2023-06-11T22:00:12.679Z,4.15
2023-06-11T22:02:41.619Z,4.72
2023-06-11T22:05:09.807Z,4.53
2023-06-11T22:07:36.996Z,5.82
2023-06-11T22:10:05.027Z,4.95
2023-06-11T22:12:41.085Z,3.80
2023-06-11T22:15:11.119Z,4.75
2023-06-11T22:17:40.458Z,5.43
2023-06-11T22:20:09.146Z,4.43
2023-06-11T22:22:38.279Z,5.00
2023-06-11T22:25:06.434Z,5.05
2023-06-11T22:27:33.447Z,4.47
2023-06-11T22:30:00.458Z,3.92
2023-06-11T22:32:27.594Z,4.53
2023-06-11T22:34:54.479Z,4.10
2023-06-11T22:37:21.231Z,4.95
2023-06-11T22:39:47.972Z,4.45
2023-06-11T22:42:14.993Z,5.18
2023-06-11T22:44:41.670Z,4.13
2023-06-11T22:47:08.789Z,5.80
2023-06-11T22:49:35.637Z,5.05
2023-06-11T22:52:02.457Z,4.57
2023-06-11T22:54:29.353Z,4.68
2023-06-11T22:56:56.046Z,4.35
2023-06-11T22:59:22.821Z,5.65
